Aeroporto :
LOGIN :

Iscrizione | Disclaimer

   EN    FR    IT 

 










Sommario :    VFR   VFR Marginale   IFR   IFR Intensivo   IFR Molto Intensivo
Visibilità : 
Base nubi : 
>= 8 km
>= 3000ft
5 / 8 km
1000 / 3000 ft
1500m / 5 km
500 / 1000 ft
800 / 1500m
200 / 500 ft
< 800m
< 200 ft
Simboli :   Temporali  Nebbia  Neve Forte  Precipitazioni Forti  Vento > 20 kt
SIGMETs :   Varie  Temporali  Ghiacco  Turbolenza  Onda orograficha  Ceneri Vulcaniche






- Altitudine del aeroporto : 87 ft
- Codice IATA : AHO


LIEA - Fertilia Alghero

ULTIMO METAR :
  • 171450Z 20009KT CAVOK 15/10 Q1026

METARs OBSOLETI :
  • 171420Z 21010KT CAVOK 15/10 Q1026
  • 171350Z 21010KT CAVOK 16/10 Q1026
  • 171320Z 20013KT CAVOK 16/09 Q1026
  • 171250Z 20012KT CAVOK 16/08 Q1027
  • 171220Z 20012KT CAVOK 16/09 Q1027

TAF TAF LIEA
Valido dal 17 a 12 ore il 18 a 12 ore UTC


171100Z 1712/1812 20010KT 9999 SCT040
BECMG 1716/1718 VRB04KT
BECMG 1808/1810 30010KT



MetMap, La meteo Aeronautica in un colpo d'occhio ! - Copyright ORBIFLY Dicembre 2007 - Disclaimer

ORBIFLY MET'MAP TEAM :

Programmazione e sviluppo : Alexandra Zaïnal
Concezione : Baudouin d'Aumeries
Aiuto per la programmazione : Marc-Olivier Méhu
Supporto tecnico e logistico : Manuel Goepfert
Aiuto per la traduzione : Arnaldo La Scala

Contatto : metmap@orbifly.com




FONTI E CREDITI :

   NOAA